Kristin D — C6XA6 — position and weather

sailwx.info

Track history (hours):
 
Tides and Currents Weather Stations Pressure Air Temp Water Temp Dewpoint Dewpoint Depression Visibility Wind Speed Wind Dir Waves Ship Positions

Kristin D

Last reported at 2015-Mar-29 16:08 UTC. Time now 2015-Mar-29 22:24 UTC.
Position N 59°08' E 009°37'.

Length 90 m; draft 4.4 m.

Type: Cargo ship. MMSI: 311003700.

Date/timePositionNaut miles runAvg speedWind from/ knotsBaromVisibWave heightAir tempDewpointWater temp
2015-Mar-29 16:08N 59°08' E 009°37'0 0.0
2015-Mar-29 13:26N 59°08' E 009°37'0 0.0
2015-Mar-29 12:26N 59°08' E 009°37'0 0.0
2015-Mar-29 08:26N 59°08' E 009°37'0 0.1
2015-Mar-29 06:31N 59°08' E 009°37'10 7.2
2015-Mar-29 05:05N 58°59' E 009°47'5 9.2
2015-Mar-29 04:32N 58°54' E 009°47'69 1.4
2015-Mar-27 04:10N 57°49' E 010°32'711.3
2015-Mar-27 03:34N 57°48' E 010°45'1211.5
2015-Mar-27 02:33N 57°41' E 011°02'1211.7
2015-Mar-27 01:34N 57°33' E 011°17'1111.0
2015-Mar-27 00:33N 57°24' E 011°29'1111.3
2015-Mar-26 23:33N 57°13' E 011°35'1211.3
2015-Mar-26 22:32N 57°02' E 011°43'1111.4
2015-Mar-26 21:34N 56°52' E 011°50'1211.6
2015-Mar-26 20:33N 56°41' E 011°56'1111.1
2015-Mar-26 19:33N 56°30' E 012°04'1211.8
2015-Mar-26 18:34N 56°21' E 012°16'1212.1
2015-Mar-26 17:34N 56°11' E 012°28'1212.0
2015-Mar-26 16:34N 56°01' E 012°41'1110.9
2015-Mar-26 15:34N 55°50' E 012°44'1110.9
2015-Mar-26 14:34N 55°40' E 012°42'1110.6
2015-Mar-26 13:34N 55°29' E 012°43'1010.3
2015-Mar-26 12:33N 55°19' E 012°41'1111.0
2015-Mar-26 11:33N 55°14' E 012°59'2411.0
2015-Mar-26 09:20N 55°05' E 013°38'810.7
2015-Mar-26 08:33N 55°01' E 013°52'10 9.8
2015-Mar-26 07:33N 54°58' E 014°08'1111.2
2015-Mar-26 06:33N 54°56' E 014°27'1111.2
2015-Mar-26 05:34N 54°55' E 014°47'1111.1
2015-Mar-26 04:33N 54°55' E 015°06'1310.8
2015-Mar-26 03:21N 54°53' E 015°28'8011.2
2015-Mar-25 20:12N 54°55' E 017°47'811.6
2015-Mar-25 19:33N 54°55' E 018°01'1211.8
2015-Mar-25 18:33N 54°54' E 018°21'1211.5
2015-Mar-25 17:33N 54°49' E 018°39'1211.5
2015-Mar-25 16:33N 54°43' E 018°56'9 9.5
2015-Mar-25 15:34N 54°34' E 018°52'1110.6
2015-Mar-25 14:33N 54°26' E 018°39'4 4.0
2015-Mar-25 13:33N 54°22' E 018°40'0 0.3
2015-Mar-25 12:32N 54°22' E 018°40'0 0.0
2015-Mar-25 11:32N 54°22' E 018°40'0 0.0
2015-Mar-25 10:31N 54°22' E 018°40'0 0.0
2015-Mar-25 09:31N 54°22' E 018°40'0 0.0
2015-Mar-25 08:28N 54°22' E 018°40'0 0.0
2015-Mar-25 07:31N 54°22' E 018°40'0 0.0
2015-Mar-25 06:31N 54°22' E 018°40'0 0.0
2015-Mar-25 05:31N 54°22' E 018°40'0 0.0
2015-Mar-25 04:31N 54°22' E 018°40'0 0.0
2015-Mar-25 03:31N 54°22' E 018°40'0 0.0
2015-Mar-25 02:31N 54°22' E 018°40'0 0.0
2015-Mar-25 01:31N 54°22' E 018°40'0 0.0
2015-Mar-25 00:31N 54°22' E 018°40'0 0.0
2015-Mar-24 23:31N 54°22' E 018°40'0 0.0
2015-Mar-24 22:31N 54°22' E 018°40'0 0.0
2015-Mar-24 21:28N 54°22' E 018°40'0 0.0
2015-Mar-24 20:31N 54°22' E 018°40'1 1.2
2015-Mar-24 19:33N 54°24' E 018°40'5 4.7
2015-Mar-24 18:33N 54°28' E 018°41'5 4.9
2015-Mar-24 17:33N 54°32' E 018°47'7 7.1
2015-Mar-24 16:33N 54°37' E 018°54'7 6.8
2015-Mar-24 15:33N 54°43' E 018°49'10 9.7
2015-Mar-24 14:33N 54°49' E 018°35'10 9.7
2015-Mar-24 13:33N 54°54' E 018°20'1010.1
2015-Mar-24 12:33N 54°54' E 018°03'8710.5
2015-Mar-24 04:12N 54°31' E 015°36'810.9
2015-Mar-24 03:30N 54°28' E 015°25'1110.9
2015-Mar-24 02:29N 54°23' E 015°07'1210.8
2015-Mar-24 01:25N 54°16' E 014°51'1010.8
2015-Mar-24 00:29N 54°10' E 014°37'1010.9
2015-Mar-23 23:33N 54°04' E 014°24'9 9.5
2015-Mar-23 22:33N 53°56' E 014°17'8 8.0
2015-Mar-23 21:33N 53°48' E 014°21'1111.4
2015-Mar-23 20:33N 53°39' E 014°33'10 9.9
2015-Mar-23 19:33N 53°30' E 014°37'4 3.8
2015-Mar-23 18:31N 53°26' E 014°35'0 0.0
2015-Mar-23 17:31N 53°26' E 014°35'0 0.0
2015-Mar-23 16:31N 53°26' E 014°35'0 0.0
2015-Mar-23 15:31N 53°26' E 014°35'0 0.0
2015-Mar-23 14:31N 53°26' E 014°35'0 0.0
2015-Mar-23 13:31N 53°26' E 014°35'0 0.0
2015-Mar-23 12:34N 53°26' E 014°35'0 0.0
2015-Mar-23 11:33N 53°26' E 014°35'0 0.0
2015-Mar-23 10:30N 53°26' E 014°35'0 0.0
2015-Mar-23 09:33N 53°26' E 014°35'0 0.0
2015-Mar-23 08:33N 53°26' E 014°35'0 0.0
2015-Mar-23 07:33N 53°26' E 014°35'0 0.0
2015-Mar-23 06:33N 53°26' E 014°35'0 0.0
2015-Mar-23 05:30N 53°26' E 014°35'0 0.0
2015-Mar-23 04:30N 53°26' E 014°35'0 0.0
2015-Mar-23 03:33N 53°26' E 014°35'0 0.0
2015-Mar-23 02:33N 53°26' E 014°35'0 0.0
2015-Mar-23 01:33N 53°26' E 014°35'0 0.0
2015-Mar-23 00:33N 53°26' E 014°35'0 0.0
2015-Mar-22 23:30N 53°26' E 014°35'0 0.0
2015-Mar-22 22:33N 53°26' E 014°35'0 0.0
2015-Mar-22 21:33N 53°26' E 014°35'0 0.0
2015-Mar-22 20:33N 53°26' E 014°35'0 0.0
2015-Mar-22 19:33N 53°26' E 014°35'0 0.0
2015-Mar-22 18:33N 53°26' E 014°35'0 0.0
2015-Mar-22 17:33N 53°26' E 014°35'7 0.8
2015-Mar-22 08:31N 53°33' E 014°38'1010.0
2015-Mar-22 07:33N 53°41' E 014°30'1110.8
2015-Mar-22 06:33N 53°50' E 014°19'7 7.3
2015-Mar-22 05:33N 53°57' E 014°16'1111.1
2015-Mar-22 04:33N 54°08' E 014°13'12 9.4
2015-Mar-22 03:19N 54°18' E 014°02'7 9.6
2015-Mar-22 02:33N 54°23' E 013°54'10 9.8
2015-Mar-22 01:33N 54°32' E 013°46'9 9.3
2015-Mar-22 00:33N 54°39' E 013°35'8 7.9
2015-Mar-21 23:33N 54°43' E 013°23'7 7.3
2015-Mar-21 22:33N 54°42' E 013°11'7 7.2
2015-Mar-21 21:33N 54°41' E 012°58'6 6.3
2015-Mar-21 20:33N 54°40' E 012°48'7 6.6
2015-Mar-21 19:33N 54°38' E 012°37'7 7.2
2015-Mar-21 18:33N 54°34' E 012°27'7 7.2
2015-Mar-21 17:33N 54°30' E 012°17'7 6.8
2015-Mar-21 16:33N 54°25' E 012°09'8 7.8
2015-Mar-21 15:33N 54°25' E 011°55'9 9.5
2015-Mar-21 14:33N 54°27' E 011°39'1111.0
2015-Mar-21 13:33N 54°31' E 011°22'1211.6
2015-Mar-21 12:33N 54°34' E 011°03'1711.6
2015-Mar-21 11:07N 54°33' E 010°34'611.5
2015-Mar-21 10:33N 54°30' E 010°24'1010.0
2015-Mar-21 09:33N 54°23' E 010°12'3 2.6
2015-Mar-21 08:33N 54°22' E 010°08'3 3.0
2015-Mar-21 07:33N 54°22' E 010°03'6 6.2
2015-Mar-21 06:34N 54°22' E 009°52'7 7.2
2015-Mar-21 05:32N 54°18' E 009°41'16 8.0
2015-Mar-21 03:31N 54°08' E 009°20'8 8.1
2015-Mar-21 02:33N 54°00' E 009°18'8 7.9
2015-Mar-21 01:33N 53°54' E 009°09'0 0.0
2015-Mar-21 00:33N 53°54' E 009°09'0 0.4
2015-Mar-20 23:33N 53°54' E 009°09'2 2.2
2015-Mar-20 22:33N 53°53' E 009°05'1111.3
2015-Mar-20 21:33N 53°51' E 008°47'1313.4
2015-Mar-20 20:34N 53°58' E 008°28'1413.2
2015-Mar-20 19:30N 53°59' E 008°05'1313.4
2015-Mar-20 18:33N 53°56' E 007°44'1212.3
2015-Mar-20 17:33N 53°53' E 007°24'1211.6
2015-Mar-20 16:31N 53°50' E 007°04'3410.8
2015-Mar-20 13:22N 53°41' E 006°08'910.8
2015-Mar-20 12:33N 53°39' E 005°54'1111.2
2015-Mar-20 11:34N 53°35' E 005°36'1111.3
2015-Mar-20 10:34N 53°31' E 005°18'1211.7
2015-Mar-20 09:34N 53°27' E 004°60'1211.7
2015-Mar-20 08:34N 53°22' E 004°43'2512.2
2015-Mar-20 06:33N 53°00' E 004°23'1212.1
2015-Mar-20 05:32N 52°50' E 004°12'1212.3
2015-Mar-20 04:33N 52°40' E 003°60'1812.4
2015-Mar-20 03:04N 52°27' E 003°38'912.5
2015-Mar-20 02:21N 52°21' E 003°28'5711.2
2015-Mar-19 21:17N 51°38' E 002°27'7 8.7
2015-Mar-19 20:32N 51°33' E 002°21'8 8.5
2015-Mar-19 19:33N 51°26' E 002°13'9 8.7
2015-Mar-19 18:34N 51°18' E 002°07'9 8.6
2015-Mar-19 17:34N 51°12' E 001°58'9 8.6
2015-Mar-19 16:33N 51°06' E 001°47'  
Track history (hours):
 
Tides and Currents Weather Stations Pressure Air Temp Water Temp Dewpoint Dewpoint Depression Visibility Wind Speed Wind Dir Waves Ship Positions

Kristin D

Last reported at 2015-Mar-29 16:08 UTC. Time now 2015-Mar-29 22:24 UTC.
Position N 59°08' E 009°37'.

Length 90 m; draft 4.4 m.

Type: Cargo ship. MMSI: 311003700.

Date/timePositionNaut miles runAvg speedWind from/ knotsBaromVisibWave heightAir tempDewpointWater temp
2015-Mar-29 16:08N 59°08' E 009°37'0 0.0
2015-Mar-29 13:26N 59°08' E 009°37'0 0.0
2015-Mar-29 12:26N 59°08' E 009°37'0 0.0
2015-Mar-29 08:26N 59°08' E 009°37'0 0.1
2015-Mar-29 06:31N 59°08' E 009°37'10 7.2
2015-Mar-29 05:05N 58°59' E 009°47'5 9.2
2015-Mar-29 04:32N 58°54' E 009°47'69 1.4
2015-Mar-27 04:10N 57°49' E 010°32'711.3
2015-Mar-27 03:34N 57°48' E 010°45'1211.5
2015-Mar-27 02:33N 57°41' E 011°02'1211.7
2015-Mar-27 01:34N 57°33' E 011°17'1111.0
2015-Mar-27 00:33N 57°24' E 011°29'1111.3
2015-Mar-26 23:33N 57°13' E 011°35'1211.3
2015-Mar-26 22:32N 57°02' E 011°43'1111.4
2015-Mar-26 21:34N 56°52' E 011°50'1211.6
2015-Mar-26 20:33N 56°41' E 011°56'1111.1
2015-Mar-26 19:33N 56°30' E 012°04'1211.8
2015-Mar-26 18:34N 56°21' E 012°16'1212.1
2015-Mar-26 17:34N 56°11' E 012°28'1212.0
2015-Mar-26 16:34N 56°01' E 012°41'1110.9
2015-Mar-26 15:34N 55°50' E 012°44'1110.9
2015-Mar-26 14:34N 55°40' E 012°42'1110.6
2015-Mar-26 13:34N 55°29' E 012°43'1010.3
2015-Mar-26 12:33N 55°19' E 012°41'1111.0
2015-Mar-26 11:33N 55°14' E 012°59'2411.0
2015-Mar-26 09:20N 55°05' E 013°38'810.7
2015-Mar-26 08:33N 55°01' E 013°52'10 9.8
2015-Mar-26 07:33N 54°58' E 014°08'1111.2
2015-Mar-26 06:33N 54°56' E 014°27'1111.2
2015-Mar-26 05:34N 54°55' E 014°47'1111.1
2015-Mar-26 04:33N 54°55' E 015°06'1310.8
2015-Mar-26 03:21N 54°53' E 015°28'8011.2
2015-Mar-25 20:12N 54°55' E 017°47'811.6
2015-Mar-25 19:33N 54°55' E 018°01'1211.8
2015-Mar-25 18:33N 54°54' E 018°21'1211.5
2015-Mar-25 17:33N 54°49' E 018°39'1211.5
2015-Mar-25 16:33N 54°43' E 018°56'9 9.5
2015-Mar-25 15:34N 54°34' E 018°52'1110.6
2015-Mar-25 14:33N 54°26' E 018°39'4 4.0
2015-Mar-25 13:33N 54°22' E 018°40'0 0.3
2015-Mar-25 12:32N 54°22' E 018°40'0 0.0
2015-Mar-25 11:32N 54°22' E 018°40'0 0.0
2015-Mar-25 10:31N 54°22' E 018°40'0 0.0
2015-Mar-25 09:31N 54°22' E 018°40'0 0.0
2015-Mar-25 08:28N 54°22' E 018°40'0 0.0
2015-Mar-25 07:31N 54°22' E 018°40'0 0.0
2015-Mar-25 06:31N 54°22' E 018°40'0 0.0
2015-Mar-25 05:31N 54°22' E 018°40'0 0.0
2015-Mar-25 04:31N 54°22' E 018°40'0 0.0
2015-Mar-25 03:31N 54°22' E 018°40'0 0.0
2015-Mar-25 02:31N 54°22' E 018°40'0 0.0
2015-Mar-25 01:31N 54°22' E 018°40'0 0.0
2015-Mar-25 00:31N 54°22' E 018°40'0 0.0
2015-Mar-24 23:31N 54°22' E 018°40'0 0.0
2015-Mar-24 22:31N 54°22' E 018°40'0 0.0
2015-Mar-24 21:28N 54°22' E 018°40'0 0.0
2015-Mar-24 20:31N 54°22' E 018°40'1 1.2
2015-Mar-24 19:33N 54°24' E 018°40'5 4.7
2015-Mar-24 18:33N 54°28' E 018°41'5 4.9
2015-Mar-24 17:33N 54°32' E 018°47'7 7.1
2015-Mar-24 16:33N 54°37' E 018°54'7 6.8
2015-Mar-24 15:33N 54°43' E 018°49'10 9.7
2015-Mar-24 14:33N 54°49' E 018°35'10 9.7
2015-Mar-24 13:33N 54°54' E 018°20'1010.1
2015-Mar-24 12:33N 54°54' E 018°03'8710.5
2015-Mar-24 04:12N 54°31' E 015°36'810.9
2015-Mar-24 03:30N 54°28' E 015°25'1110.9
2015-Mar-24 02:29N 54°23' E 015°07'1210.8
2015-Mar-24 01:25N 54°16' E 014°51'1010.8
2015-Mar-24 00:29N 54°10' E 014°37'1010.9
2015-Mar-23 23:33N 54°04' E 014°24'9 9.5
2015-Mar-23 22:33N 53°56' E 014°17'8 8.0
2015-Mar-23 21:33N 53°48' E 014°21'1111.4
2015-Mar-23 20:33N 53°39' E 014°33'10 9.9
2015-Mar-23 19:33N 53°30' E 014°37'4 3.8
2015-Mar-23 18:31N 53°26' E 014°35'0 0.0
2015-Mar-23 17:31N 53°26' E 014°35'0 0.0
2015-Mar-23 16:31N 53°26' E 014°35'0 0.0
2015-Mar-23 15:31N 53°26' E 014°35'0 0.0
2015-Mar-23 14:31N 53°26' E 014°35'0 0.0
2015-Mar-23 13:31N 53°26' E 014°35'0 0.0
2015-Mar-23 12:34N 53°26' E 014°35'0 0.0
2015-Mar-23 11:33N 53°26' E 014°35'0 0.0
2015-Mar-23 10:30N 53°26' E 014°35'0 0.0
2015-Mar-23 09:33N 53°26' E 014°35'0 0.0
2015-Mar-23 08:33N 53°26' E 014°35'0 0.0
2015-Mar-23 07:33N 53°26' E 014°35'0 0.0
2015-Mar-23 06:33N 53°26' E 014°35'0 0.0
2015-Mar-23 05:30N 53°26' E 014°35'0 0.0
2015-Mar-23 04:30N 53°26' E 014°35'0 0.0
2015-Mar-23 03:33N 53°26' E 014°35'0 0.0
2015-Mar-23 02:33N 53°26' E 014°35'0 0.0
2015-Mar-23 01:33N 53°26' E 014°35'0 0.0
2015-Mar-23 00:33N 53°26' E 014°35'0 0.0
2015-Mar-22 23:30N 53°26' E 014°35'0 0.0
2015-Mar-22 22:33N 53°26' E 014°35'0 0.0
2015-Mar-22 21:33N 53°26' E 014°35'0 0.0
2015-Mar-22 20:33N 53°26' E 014°35'0 0.0
2015-Mar-22 19:33N 53°26' E 014°35'0 0.0
2015-Mar-22 18:33N 53°26' E 014°35'0 0.0
2015-Mar-22 17:33N 53°26' E 014°35'7 0.8
2015-Mar-22 08:31N 53°33' E 014°38'1010.0
2015-Mar-22 07:33N 53°41' E 014°30'1110.8
2015-Mar-22 06:33N 53°50' E 014°19'7 7.3
2015-Mar-22 05:33N 53°57' E 014°16'1111.1
2015-Mar-22 04:33N 54°08' E 014°13'12 9.4
2015-Mar-22 03:19N 54°18' E 014°02'7 9.6
2015-Mar-22 02:33N 54°23' E 013°54'10 9.8
2015-Mar-22 01:33N 54°32' E 013°46'9 9.3
2015-Mar-22 00:33N 54°39' E 013°35'8 7.9
2015-Mar-21 23:33N 54°43' E 013°23'7 7.3
2015-Mar-21 22:33N 54°42' E 013°11'7 7.2
2015-Mar-21 21:33N 54°41' E 012°58'6 6.3
2015-Mar-21 20:33N 54°40' E 012°48'7 6.6
2015-Mar-21 19:33N 54°38' E 012°37'7 7.2
2015-Mar-21 18:33N 54°34' E 012°27'7 7.2
2015-Mar-21 17:33N 54°30' E 012°17'7 6.8
2015-Mar-21 16:33N 54°25' E 012°09'8 7.8
2015-Mar-21 15:33N 54°25' E 011°55'9 9.5
2015-Mar-21 14:33N 54°27' E 011°39'1111.0
2015-Mar-21 13:33N 54°31' E 011°22'1211.6
2015-Mar-21 12:33N 54°34' E 011°03'1711.6
2015-Mar-21 11:07N 54°33' E 010°34'611.5
2015-Mar-21 10:33N 54°30' E 010°24'1010.0
2015-Mar-21 09:33N 54°23' E 010°12'3 2.6
2015-Mar-21 08:33N 54°22' E 010°08'3 3.0
2015-Mar-21 07:33N 54°22' E 010°03'6 6.2
2015-Mar-21 06:34N 54°22' E 009°52'7 7.2
2015-Mar-21 05:32N 54°18' E 009°41'16 8.0
2015-Mar-21 03:31N 54°08' E 009°20'8 8.1
2015-Mar-21 02:33N 54°00' E 009°18'8 7.9
2015-Mar-21 01:33N 53°54' E 009°09'0 0.0
2015-Mar-21 00:33N 53°54' E 009°09'0 0.4
2015-Mar-20 23:33N 53°54' E 009°09'2 2.2
2015-Mar-20 22:33N 53°53' E 009°05'1111.3
2015-Mar-20 21:33N 53°51' E 008°47'1313.4
2015-Mar-20 20:34N 53°58' E 008°28'1413.2
2015-Mar-20 19:30N 53°59' E 008°05'1313.4
2015-Mar-20 18:33N 53°56' E 007°44'1212.3
2015-Mar-20 17:33N 53°53' E 007°24'1211.6
2015-Mar-20 16:31N 53°50' E 007°04'3410.8
2015-Mar-20 13:22N 53°41' E 006°08'910.8
2015-Mar-20 12:33N 53°39' E 005°54'1111.2
2015-Mar-20 11:34N 53°35' E 005°36'1111.3
2015-Mar-20 10:34N 53°31' E 005°18'1211.7
2015-Mar-20 09:34N 53°27' E 004°60'1211.7
2015-Mar-20 08:34N 53°22' E 004°43'2512.2
2015-Mar-20 06:33N 53°00' E 004°23'1212.1
2015-Mar-20 05:32N 52°50' E 004°12'1212.3
2015-Mar-20 04:33N 52°40' E 003°60'1812.4
2015-Mar-20 03:04N 52°27' E 003°38'912.5
2015-Mar-20 02:21N 52°21' E 003°28'5711.2
2015-Mar-19 21:17N 51°38' E 002°27'7 8.7
2015-Mar-19 20:32N 51°33' E 002°21'8 8.5
2015-Mar-19 19:33N 51°26' E 002°13'9 8.7
2015-Mar-19 18:34N 51°18' E 002°07'9 8.6
2015-Mar-19 17:34N 51°12' E 001°58'9 8.6
2015-Mar-19 16:33N 51°06' E 001°47'  

Dump ship's entire track history